Jacksonville, IL (62650)

7:22 AM CST on February 08, 2016 (GMT -0600)
Book Lane | | Change Station
CLOSE
Current Station
Personal Weather Station
Location: Jacksonville, IL
Elevation: 663 ft
Nearby Weather Stations
Active Advisory: Special Statement

Elev 663 ft 39.73 °N, 90.26 °W | Updated 7 seconds ago

Light Snow
Light Snow
26.1 °F
Feels Like 19 °F
N
6.0
Wind Variable Wind from NW
Gusts 7.4 mph

Today
High -- | Low -- °F
--% Chance of Precip.
Yesterday
High -- | Low -- °F
Precip. -- in
Pressure 29.79 in
Visibility 1.2 miles
Clouds Mostly Cloudy 1100 ft
Mostly Cloudy 1600 ft
Overcast 2100 ft
Windchill 19 °F
Dew Point 22 °F
Humidity 83%
Rainfall 0.02 in
Snow Depth Not available.
7:02 AM 5:28 PM
Waning Crescent, 0% visible
METAR KIJX 081315Z AUTO 31015G20KT 1 1/4SM -SN BKN011 BKN016 OVC021 M02/M04 A2979 RMK AO2 T10221042
Pressure 29.79 in
Visibility 1.2 miles
Clouds Mostly Cloudy 1100 ft
Mostly Cloudy 1600 ft
Overcast 2100 ft
Windchill 19 °F
Dew Point 22 °F
Humidity 83%
Rainfall 0.02 in
Snow Depth Not available.
7:02 AM 5:28 PM
Waning Crescent, 0% visible
METAR KIJX 081315Z AUTO 31015G20KT 1 1/4SM -SN BKN011 BKN016 OVC021 M02/M04 A2979 RMK AO2 T10221042

10-Day Weather Forecast

Almanac

Astronomy

Feb. 08, 2016 Rise Set
Actual Time
Civil Twilight
Nautical Twilight
Astronomical Twilight
Moon
Length of Visible Light
Length of Day
Tomorrow will be .
, % of the Moon is Illuminated

Today's Extremes

State Highs State Lows

Community

WunderPhotos

Upload Photos

1,891,434 photos uploaded!

WunderBlog® & News

Nearby

Air Quality

  Air Quality AQ Index Pollutant
Not available.

Snow Depth

Station Depth Elevation

Earthquake Activity

City Distance Mag. Time & Date
Minimum magnitude displayed is 2.5.

Coastal Water Temperatures

Place Temperature

Stations

Nearby Weather Stations

Station Location Temp. Windchill Dew Point Humidity Wind Precip. Elev Updated Type
                   

Watches & Warnings

Special Statement
Issued: 6:25 AM CST Feb. 8, 2016 – National Weather Service

Scattered snow showers developing over central Illinois this
morning will create areas of minor accumulations on roadways. Some
Road surfaces will be very slick for the morning commute.


Onton


625 am CST Mon Feb 8 2016

Scattered snow showers developing over central Illinois this
morning will create areas of minor accumulations on roadways. Some
Road surfaces will be very slick for the morning commute.


Onton